Time;durP1;ratioP1;P1;durP2;ratioP2;P2;SDS_P1;SDS_P2;PMS_P1;PMS_P2;Temp;Humidity;BMP_temperature;BMP_pressure;BME280_temperature;BME280_humidity;BME280_pressure;Samples;Min_cycle;Max_cycle;Signal;HPM_P1;HPM_P2
2022/08/07 00:01:13;;;;;;;1.27;0.80;;;21.60;43.00;;;-142.21;38.35;112049.66;5053865;28;20309;-73
2022/08/07 00:03:40;;;;;;;1.20;0.90;;;21.60;43.20;;;-142.21;38.70;112049.66;5053392;28;20217;-72
2022/08/07 00:06:09;;;;;;;1.37;0.83;;;21.60;43.30;;;-142.21;38.76;112049.66;5053963;28;20235;-72
2022/08/07 00:08:37;;;;;;;1.10;1.00;;;21.50;43.50;;;-142.21;38.64;112049.66;5053304;28;20293;-73
2022/08/07 00:11:08;;;;;;;1.07;0.90;;;21.50;43.30;;;-142.21;38.59;112049.66;5053589;28;20297;-73
2022/08/07 00:13:36;;;;;;;1.57;1.00;;;21.50;43.50;;;-142.21;39.24;112049.66;5052686;28;20670;-73
2022/08/07 00:16:05;;;;;;;1.00;0.93;;;21.40;43.80;;;-142.21;39.79;112049.66;5053505;28;20222;-72
2022/08/07 00:18:33;;;;;;;1.30;0.87;;;21.40;44.20;;;-142.21;39.89;112049.66;5053139;28;20212;-72
2022/08/07 00:21:03;;;;;;;1.70;0.93;;;21.40;44.40;;;-142.21;40.19;112049.66;5064568;28;20197;-73
2022/08/07 00:23:34;;;;;;;0.73;0.70;;;21.30;45.10;;;-142.21;40.48;112049.66;5037782;28;20212;-72
2022/08/07 00:26:04;;;;;;;1.43;1.00;;;21.20;45.60;;;-142.21;41.03;112049.66;5073256;28;20193;-73
2022/08/07 00:28:33;;;;;;;2.80;1.10;;;21.20;45.20;;;-142.21;41.21;112049.66;5072693;28;20201;-72
2022/08/07 00:31:00;;;;;;;1.27;1.00;;;21.10;45.30;;;-142.21;41.68;112049.66;5073241;28;20701;-72
2022/08/07 00:33:28;;;;;;;1.30;1.00;;;21.10;45.70;;;-142.21;42.01;112049.66;5072580;28;20296;-72
2022/08/07 00:35:55;;;;;;;1.73;1.40;;;21.00;45.60;;;-142.21;41.88;112049.66;5060611;28;20578;-72
2022/08/07 00:38:24;;;;;;;1.07;0.90;;;21.00;45.60;;;-142.21;42.05;112049.66;5052969;28;20301;-72
2022/08/07 00:40:52;;;;;;;0.83;0.83;;;21.00;46.00;;;-142.21;42.29;112049.66;5033483;28;20586;-72
2022/08/07 00:43:20;;;;;;;2.00;1.00;;;20.90;46.10;;;-142.21;42.44;112049.66;5032043;28;20242;-73
2022/08/07 00:45:47;;;;;;;1.10;1.00;;;20.90;46.20;;;-142.21;42.66;112049.66;5033429;28;20540;-72
2022/08/07 00:48:15;;;;;;;2.17;1.27;;;20.90;46.20;;;-142.21;43.13;112049.66;5033648;28;20270;-73
2022/08/07 00:50:43;;;;;;;3.20;1.23;;;20.90;46.50;;;-142.21;43.18;112049.66;5032946;28;20216;-73
2022/08/07 00:53:10;;;;;;;2.50;1.10;;;20.80;46.60;;;-142.21;43.51;112049.66;5033537;28;20297;-72
2022/08/07 00:55:37;;;;;;;1.80;1.10;;;20.70;46.70;;;-142.21;43.56;112049.66;5032380;28;20317;-73
2022/08/07 00:58:06;;;;;;;0.90;0.90;;;20.70;46.80;;;-142.21;43.05;112049.66;5033077;28;20215;-73
2022/08/07 01:00:33;;;;;;;1.13;1.03;;;20.60;46.60;;;-142.21;42.97;112049.66;5032846;28;20293;-73
2022/08/07 01:03:00;;;;;;;1.10;1.00;;;20.50;46.40;;;-142.21;43.23;112049.66;5033641;28;20206;-73
2022/08/07 01:05:28;;;;;;;0.90;0.80;;;20.50;47.00;;;-142.21;43.60;112049.66;5031786;28;20205;-73
2022/08/07 01:07:55;;;;;;;0.77;0.73;;;20.40;46.60;;;-142.21;43.24;112049.66;5033512;28;20206;-73
2022/08/07 01:10:23;;;;;;;0.60;0.60;;;20.40;46.70;;;-142.21;43.01;112049.66;5049100;28;20233;-73
2022/08/07 01:12:50;;;;;;;1.13;1.03;;;20.40;47.10;;;-142.21;43.05;112049.66;5048214;28;20206;-72
2022/08/07 01:15:19;;;;;;;1.73;1.10;;;20.30;46.60;;;-142.21;43.32;112049.66;5033896;28;20695;-72
2022/08/07 01:17:46;;;;;;;1.10;1.00;;;20.30;46.90;;;-142.21;43.83;112049.66;5031922;28;20750;-73
2022/08/07 01:20:15;;;;;;;2.07;1.30;;;20.20;47.00;;;-142.21;43.94;112049.66;5032206;28;20293;-73
2022/08/07 01:22:46;;;;;;;0.77;0.77;;;20.20;47.10;;;-142.21;44.03;112049.66;5031649;28;20206;-73
2022/08/07 01:25:16;;;;;;;1.50;1.20;;;20.20;47.10;;;-142.21;44.08;112049.66;5032702;28;20214;-72
2022/08/07 01:27:43;;;;;;;2.00;1.43;;;20.20;47.10;;;-142.21;44.13;112049.66;5031851;28;20631;-73
2022/08/07 01:30:12;;;;;;;2.00;1.10;;;20.10;46.90;;;-142.21;44.09;112049.66;5032235;28;20203;-73
2022/08/07 01:32:39;;;;;;;0.80;0.80;;;20.10;46.90;;;-142.21;44.26;112049.66;5032119;28;20216;-73
2022/08/07 01:35:08;;;;;;;1.57;1.17;;;20.00;47.00;;;-142.21;44.60;112049.66;5038220;28;20333;-72
2022/08/07 01:37:36;;;;;;;1.30;1.20;;;20.00;47.20;;;-142.21;44.38;112049.66;5051631;28;20233;-73
2022/08/07 01:40:08;;;;;;;1.20;0.97;;;19.90;47.00;;;-142.21;44.37;112049.66;5052141;28;20288;-73
2022/08/07 01:42:36;;;;;;;1.73;0.93;;;19.90;47.20;;;-142.21;44.90;112049.66;5051066;28;20259;-73
2022/08/07 01:45:05;;;;;;;0.90;0.90;;;19.90;47.30;;;-142.21;45.36;112049.66;5052174;28;20205;-73
2022/08/07 01:47:34;;;;;;;1.30;1.20;;;19.80;47.50;;;-142.21;45.45;112049.66;5051197;28;20205;-73
2022/08/07 01:50:01;;;;;;;0.80;0.80;;;19.80;47.60;;;-142.21;45.18;112049.66;5052208;28;20304;-73
2022/08/07 01:52:33;;;;;;;1.10;1.00;;;19.70;47.60;;;-142.21;45.47;112049.66;5050996;28;20292;-73
2022/08/07 01:55:01;;;;;;;0.97;0.90;;;19.70;47.60;;;-142.21;45.67;112049.66;5052118;28;20634;-73
2022/08/07 01:57:37;;;;;;;1.63;1.00;;;19.60;47.70;;;-142.21;45.70;112049.66;5051471;28;20301;-73
2022/08/07 02:00:10;;;;;;;0.90;0.90;;;19.50;47.80;;;-142.21;45.95;112049.66;5052154;28;20185;-72
2022/08/07 02:02:46;;;;;;;1.00;0.90;;;19.50;48.00;;;-142.21;45.98;112049.66;5051098;28;20190;-73
2022/08/07 02:05:26;;;;;;;1.17;1.10;;;19.50;48.20;;;-142.21;46.69;112049.66;5052023;28;20609;-73
2022/08/07 02:08:00;;;;;;;1.40;1.20;;;19.40;48.40;;;-142.21;46.36;112049.66;5051952;28;20268;-73
2022/08/07 02:10:31;;;;;;;3.27;1.10;;;19.40;48.40;;;-142.21;47.27;112049.66;5051353;28;20463;-72
2022/08/07 02:13:03;;;;;;;1.73;1.23;;;19.40;48.60;;;-142.21;47.14;112049.66;5052146;28;20201;-73
2022/08/07 02:15:31;;;;;;;1.47;1.27;;;19.40;48.60;;;-142.21;46.73;112049.66;5051065;28;20297;-72
2022/08/07 02:18:02;;;;;;;1.17;1.07;;;19.30;48.50;;;-142.21;46.49;112049.66;5055244;28;20293;-72
2022/08/07 02:20:33;;;;;;;1.00;0.80;;;19.40;48.40;;;-142.21;46.80;112049.66;5054975;28;20189;-73
2022/08/07 02:23:04;;;;;;;0.90;0.90;;;19.40;49.20;;;-142.21;47.06;112049.66;5055991;28;20524;-73
2022/08/07 02:25:35;;;;;;;1.53;1.33;;;19.30;48.60;;;-142.21;47.48;112049.66;5055142;28;20871;-73
2022/08/07 02:28:06;;;;;;;2.60;1.60;;;19.30;48.90;;;-142.21;47.60;112049.66;5055857;28;20189;-72
2022/08/07 02:30:39;;;;;;;1.83;1.10;;;19.20;49.10;;;-142.21;47.87;112049.66;5020242;28;20201;-72
2022/08/07 02:33:09;;;;;;;2.70;1.33;;;19.20;49.10;;;-142.21;47.77;112049.66;5055445;28;20424;-73
2022/08/07 02:35:39;;;;;;;2.67;1.20;;;19.20;49.00;;;-142.21;47.52;112049.66;5054890;28;20232;-72
2022/08/07 02:38:10;;;;;;;1.20;1.10;;;19.20;49.00;;;-142.21;48.06;112049.66;5055345;28;20204;-72
2022/08/07 02:40:38;;;;;;;1.00;0.97;;;19.20;49.20;;;-142.21;48.42;112049.66;5054705;28;20225;-73
2022/08/07 02:43:08;;;;;;;3.33;1.00;;;19.10;49.30;;;-142.21;48.37;112049.66;5055215;28;20329;-73
2022/08/07 02:45:41;;;;;;;1.53;1.03;;;19.10;49.40;;;-142.21;48.85;112049.66;5054800;28;20198;-73
2022/08/07 02:48:08;;;;;;;1.17;1.07;;;19.10;49.50;;;-142.21;48.80;112049.66;5055247;28;20189;-73
2022/08/07 02:50:43;;;;;;;1.57;0.93;;;19.10;49.40;;;-142.21;49.28;112049.66;5054775;28;20296;-73
2022/08/07 02:53:17;;;;;;;2.60;1.10;;;19.10;49.80;;;-142.21;48.74;112049.66;5055362;28;20193;-73
2022/08/07 02:55:48;;;;;;;0.80;0.80;;;19.10;49.50;;;-142.21;48.81;112049.66;5054378;28;20695;-73
2022/08/07 02:58:21;;;;;;;1.80;0.80;;;19.10;49.30;;;-142.21;49.04;112049.66;5055413;28;20197;-72
2022/08/07 03:00:53;;;;;;;2.17;0.80;;;19.00;49.40;;;-142.21;48.88;112049.66;5054721;28;20197;-72
2022/08/07 03:03:23;;;;;;;1.10;1.00;;;19.00;49.50;;;-142.21;49.06;112049.66;5054976;28;20190;-72
2022/08/07 03:05:52;;;;;;;0.90;0.90;;;19.00;49.40;;;-142.21;48.87;112049.66;5054392;28;20442;-72
2022/08/07 03:08:22;;;;;;;1.17;1.03;;;18.90;49.20;;;-142.21;49.26;112049.66;5054964;28;20792;-72
2022/08/07 03:10:50;;;;;;;1.30;1.20;;;18.90;49.40;;;-142.21;48.93;112049.66;5053016;28;20296;-72
2022/08/07 03:13:19;;;;;;;1.33;1.20;;;18.80;49.30;;;-142.21;48.87;112049.66;5055091;28;21019;-72
2022/08/07 03:15:47;;;;;;;1.57;1.10;;;18.80;49.10;;;-142.21;49.13;112049.66;5053942;28;20229;-72
2022/08/07 03:18:16;;;;;;;0.97;0.97;;;18.70;49.30;;;-142.21;49.06;112049.66;5054850;28;20206;-72
2022/08/07 03:20:44;;;;;;;1.23;1.03;;;18.70;49.30;;;-142.21;48.95;112049.66;5054045;28;21019;-72
2022/08/07 03:23:12;;;;;;;1.10;1.00;;;18.70;49.40;;;-142.21;48.97;112049.66;5054591;28;20212;-72
2022/08/07 03:25:47;;;;;;;1.30;1.07;;;18.70;49.50;;;-142.21;49.15;112049.66;5054216;28;20531;-72
2022/08/07 03:28:21;;;;;;;1.87;1.03;;;18.60;49.50;;;-142.21;49.12;112049.66;5054036;28;20225;-73
2022/08/07 03:31:17;;;;;;;0.90;0.90;;;18.60;49.60;;;-142.21;49.02;112049.66;5053961;28;20209;-73
2022/08/07 03:33:40;;;;;;;1.10;1.00;;;18.60;49.60;;;-142.21;49.61;112049.66;5053415;28;20454;-72
2022/08/07 03:36:10;;;;;;;1.20;1.10;;;18.60;49.70;;;-142.21;49.74;112049.66;5055601;28;20484;-74
2022/08/07 03:38:40;;;;;;;2.00;1.07;;;18.60;49.90;;;-142.21;50.13;112049.66;5053588;28;20206;-72
2022/08/07 03:41:08;;;;;;;1.00;0.90;;;18.60;50.00;;;-142.21;50.27;112049.66;5054506;28;20731;-73
2022/08/07 03:43:38;;;;;;;1.13;1.03;;;18.50;50.00;;;-142.21;50.48;112049.66;5053242;28;20601;-72
2022/08/07 03:46:08;;;;;;;2.47;1.07;;;18.50;50.20;;;-142.21;50.34;112049.66;5054432;28;20523;-73
2022/08/07 03:48:37;;;;;;;1.57;1.07;;;18.50;50.20;;;-142.21;50.99;112049.66;5053346;28;20530;-73
2022/08/07 03:51:05;;;;;;;1.67;1.20;;;18.50;50.40;;;-142.21;51.06;112049.66;5053723;28;20441;-74
2022/08/07 03:53:32;;;;;;;2.73;1.10;;;18.50;50.50;;;-142.21;51.87;112049.66;5053684;28;20784;-73
2022/08/07 03:56:01;;;;;;;1.40;1.13;;;18.60;50.80;;;-142.21;52.12;112049.66;5054083;28;20236;-73
2022/08/07 03:58:29;;;;;;;1.10;1.03;;;18.50;50.80;;;-142.21;52.19;112049.66;5053783;28;20210;-73
2022/08/07 04:01:00;;;;;;;1.10;1.00;;;18.50;50.80;;;-142.21;52.00;112049.66;5054108;28;20619;-72
2022/08/07 04:03:27;;;;;;;1.20;1.10;;;18.50;50.80;;;-142.21;52.33;112049.66;5053670;28;20631;-72
2022/08/07 04:05:55;;;;;;;0.73;0.73;;;18.50;50.80;;;-142.21;52.71;112049.66;5052846;28;20495;-73
2022/08/07 04:08:23;;;;;;;2.20;1.20;;;18.50;51.10;;;-142.21;53.46;112049.66;5054050;28;20460;-72
2022/08/07 04:10:52;;;;;;;5.53;1.80;;;18.40;51.30;;;-142.21;56.62;112049.66;5053495;28;20440;-72
2022/08/07 04:13:20;;;;;;;6.00;2.00;;;18.40;52.20;;;-142.21;56.39;112049.66;5054303;28;20872;-72
2022/08/07 04:15:47;;;;;;;3.80;1.60;;;18.30;52.30;;;-142.21;56.59;112049.66;5053658;28;20886;-72
2022/08/07 04:18:17;;;;;;;3.00;1.40;;;18.30;52.10;;;-142.21;54.90;112049.66;5054272;28;20448;-73
2022/08/07 04:20:47;;;;;;;6.70;2.10;;;18.20;51.80;;;-142.21;57.32;112049.66;5053287;28;20440;-72
2022/08/07 04:23:16;;;;;;;2.43;1.00;;;18.30;52.30;;;-142.21;58.20;112049.66;5054453;28;20194;-73
2022/08/07 04:25:44;;;;;;;1.63;1.20;;;18.30;52.60;;;-142.21;59.65;112049.66;5053397;28;20448;-72
2022/08/07 04:28:12;;;;;;;1.43;1.27;;;18.20;53.20;;;-142.21;58.96;112049.66;5054230;28;20444;-72
2022/08/07 04:30:40;;;;;;;2.27;1.20;;;18.10;53.00;;;-142.21;60.50;112049.66;5053145;28;20445;-71
2022/08/07 04:33:09;;;;;;;1.90;1.10;;;18.10;53.50;;;-142.21;61.13;112049.66;5054075;28;20454;-74
2022/08/07 04:35:39;;;;;;;2.50;1.27;;;18.10;53.80;;;-142.21;62.25;112049.66;5053126;28;20472;-72
2022/08/07 04:38:08;;;;;;;4.57;1.20;;;18.00;54.40;;;-142.21;62.86;112049.66;5019716;28;20435;-73
2022/08/07 04:40:40;;;;;;;7.73;2.70;;;18.00;54.50;;;-142.21;64.51;112049.66;5072549;28;20464;-72
2022/08/07 04:43:07;;;;;;;3.97;1.73;;;18.00;54.80;;;-142.21;64.19;112049.66;5072235;28;20511;-72
2022/08/07 04:45:43;;;;;;;3.67;1.57;;;18.00;54.80;;;-142.21;64.43;112049.66;5053552;28;20528;-73
2022/08/07 04:48:25;;;;;;;3.93;1.67;;;18.00;55.40;;;-142.21;62.93;112049.66;5053721;28;20430;-72
2022/08/07 04:51:05;;;;;;;2.23;1.10;;;17.90;54.70;;;-142.21;62.49;112049.66;5053278;28;20198;-73
2022/08/07 04:53:44;;;;;;;3.50;1.97;;;17.90;54.40;;;-142.21;63.84;112049.66;5053599;28;20443;-72
2022/08/07 04:56:44;;;;;;;2.93;1.37;;;17.90;54.40;;;-142.21;64.33;112049.66;5053099;28;20555;-72
2022/08/07 04:59:20;;;;;;;2.57;1.63;;;17.90;55.10;;;-142.21;65.16;112049.66;5053445;28;20433;-71
2022/08/07 05:01:59;;;;;;;2.87;1.70;;;17.90;55.20;;;-142.21;65.21;112049.66;5052454;28;20428;-72
2022/08/07 05:04:39;;;;;;;12.60;3.67;;;18.00;55.00;;;-142.21;67.15;112049.66;5051349;28;20435;-72
2022/08/07 05:07:16;;;;;;;4.43;1.70;;;18.00;55.90;;;-142.21;64.03;112049.66;5053037;28;20437;-72
2022/08/07 05:09:55;;;;;;;2.30;1.47;;;18.00;55.10;;;-142.21;64.06;112049.66;5052014;28;20436;-72
2022/08/07 05:12:38;;;;;;;1.40;1.30;;;18.10;55.20;;;-142.21;64.02;112049.66;5020646;28;20455;-72
2022/08/07 05:15:16;;;;;;;0.93;0.90;;;18.10;54.90;;;-142.21;63.79;112049.66;5052765;28;20939;-72
2022/08/07 05:17:48;;;;;;;3.40;1.40;;;18.20;55.00;;;-142.21;62.54;112049.66;5051943;28;20468;-71
2022/08/07 05:20:23;;;;;;;1.70;1.60;;;18.20;54.70;;;-142.21;64.06;112049.66;5052104;28;20443;-73
2022/08/07 05:22:57;;;;;;;1.73;1.20;;;18.30;55.00;;;-142.21;63.06;112049.66;5052195;28;20436;-72
2022/08/07 05:25:27;;;;;;;2.43;1.60;;;18.30;54.70;;;-142.21;62.76;112049.66;5052276;28;20512;-72
2022/08/07 05:27:57;;;;;;;2.60;1.33;;;18.40;54.50;;;-142.21;62.34;112049.66;5051991;28;20843;-72
2022/08/07 05:30:26;;;;;;;3.47;1.37;;;18.50;54.50;;;-142.21;61.48;112049.66;5052064;28;20455;-73
2022/08/07 05:32:56;;;;;;;1.47;1.17;;;18.60;54.30;;;-142.21;60.86;112049.66;5051733;28;20440;-73
2022/08/07 05:35:24;;;;;;;1.50;1.40;;;18.60;54.10;;;-142.21;60.90;112049.66;5052598;28;20487;-73
2022/08/07 05:37:54;;;;;;;1.07;1.07;;;18.70;54.10;;;-142.21;60.69;112049.66;5051751;28;20574;-73
2022/08/07 05:40:22;;;;;;;1.40;1.20;;;18.70;53.90;;;-142.21;59.04;112049.66;5052100;28;20531;-73
2022/08/07 05:42:50;;;;;;;2.57;1.57;;;18.80;53.60;;;-142.21;58.68;112049.66;5051265;28;20483;-72
2022/08/07 05:45:20;;;;;;;1.73;1.20;;;18.90;53.50;;;-142.21;58.51;112049.66;5051852;28;20444;-72
2022/08/07 05:47:51;;;;;;;1.33;1.20;;;19.00;53.40;;;-142.21;57.80;112049.66;5051457;28;20251;-73
2022/08/07 05:50:19;;;;;;;1.57;1.00;;;19.20;53.30;;;-142.21;57.63;112049.66;5050689;28;20236;-72
2022/08/07 05:52:46;;;;;;;1.20;1.10;;;19.20;53.10;;;-142.21;57.29;112049.66;5049797;28;20481;-72
2022/08/07 05:55:15;;;;;;;2.37;1.63;;;19.30;53.10;;;-142.21;55.69;112049.66;5051738;28;20705;-72
2022/08/07 05:57:45;;;;;;;2.27;1.30;;;19.40;52.70;;;-142.21;54.08;112049.66;5051317;28;20349;-72
2022/08/07 06:00:13;;;;;;;0.80;0.70;;;19.50;52.10;;;-142.21;53.04;112049.66;5052189;28;20433;-72
2022/08/07 06:02:45;;;;;;;0.97;0.90;;;19.60;51.70;;;-142.21;51.93;112049.66;5033335;28;20613;-73
2022/08/07 06:05:14;;;;;;;1.33;1.10;;;19.80;51.40;;;-142.21;52.59;112049.66;5051826;28;20635;-72
2022/08/07 06:07:43;;;;;;;1.33;1.00;;;19.80;51.10;;;-142.21;52.21;112049.66;5051219;28;20198;-72
2022/08/07 06:10:25;;;;;;;1.13;0.77;;;19.90;51.20;;;-142.21;51.13;112049.66;5051680;28;20667;-72
2022/08/07 06:12:52;;;;;;;0.60;0.60;;;20.00;51.00;;;-142.21;50.14;112049.66;5050053;28;20232;-73
2022/08/07 06:15:22;;;;;;;1.47;1.30;;;20.10;50.60;;;-142.21;50.15;112049.66;5050769;28;20244;-73
2022/08/07 06:17:51;;;;;;;0.87;0.87;;;20.20;50.50;;;-142.21;50.02;112049.66;5050986;28;20313;-72
2022/08/07 06:20:18;;;;;;;1.63;0.87;;;20.30;50.30;;;-142.21;49.06;112049.66;5051712;28;20221;-72
2022/08/07 06:22:48;;;;;;;1.27;0.83;;;20.40;50.00;;;-142.21;48.31;112049.66;5051009;28;20567;-73
2022/08/07 06:25:18;;;;;;;1.00;0.90;;;20.50;49.80;;;-142.21;46.92;112049.66;5052066;28;20213;-73
2022/08/07 06:27:45;;;;;;;0.80;0.80;;;20.60;49.30;;;-142.21;45.52;112049.66;5051180;28;20277;-72
2022/08/07 06:30:13;;;;;;;0.70;0.60;;;20.70;48.60;;;-142.21;46.17;112049.66;5051588;28;20288;-73
2022/08/07 06:32:40;;;;;;;1.07;0.83;;;20.70;48.60;;;-142.21;45.76;112049.66;5050782;28;20739;-72
2022/08/07 06:35:08;;;;;;;0.70;0.70;;;20.80;48.30;;;-142.21;44.95;112049.66;5051818;28;20619;-73
2022/08/07 06:37:35;;;;;;;1.50;0.90;;;20.90;48.30;;;-142.21;44.88;112049.66;5051215;28;20225;-73
2022/08/07 06:40:03;;;;;;;1.40;0.80;;;21.00;48.10;;;-142.21;44.93;112049.66;5051139;28;20206;-72
2022/08/07 06:42:36;;;;;;;1.10;0.93;;;21.10;48.10;;;-142.21;44.91;112049.66;5051061;28;20253;-72
2022/08/07 06:45:09;;;;;;;1.20;1.10;;;21.20;47.90;;;-142.21;44.03;112049.66;5050588;28;20732;-72
2022/08/07 06:47:36;;;;;;;1.13;0.90;;;21.30;47.50;;;-142.21;44.47;112049.66;5050275;28;20203;-73
2022/08/07 06:50:05;;;;;;;0.87;0.80;;;21.40;47.70;;;-142.21;44.39;112049.66;5050753;28;20209;-72
2022/08/07 06:52:37;;;;;;;1.40;0.90;;;21.50;47.50;;;-142.21;44.18;112049.66;5052264;28;20666;-73
2022/08/07 06:55:10;;;;;;;0.80;0.60;;;21.60;47.40;;;-142.21;43.73;112049.66;5050863;28;20285;-73
2022/08/07 06:57:40;;;;;;;1.33;1.00;;;21.80;47.10;;;-142.21;43.55;112049.66;5051365;28;20206;-72
2022/08/07 07:00:09;;;;;;;1.20;1.10;;;21.90;47.10;;;-142.21;43.31;112049.66;5051453;28;20217;-72
2022/08/07 07:02:39;;;;;;;0.83;0.83;;;21.90;46.90;;;-142.21;42.84;112049.66;5051526;28;20210;-72
2022/08/07 07:05:07;;;;;;;1.40;1.30;;;22.00;46.40;;;-142.21;42.85;112049.66;5054776;28;20296;-72
2022/08/07 07:07:35;;;;;;;1.13;1.03;;;22.10;46.60;;;-142.21;43.16;112049.66;5020031;28;20209;-72
2022/08/07 07:10:03;;;;;;;1.40;1.30;;;22.20;46.80;;;-142.21;43.39;112049.66;5054250;28;20216;-72
2022/08/07 07:12:43;;;;;;;1.20;1.10;;;22.30;46.70;;;-142.21;43.86;112049.66;5054965;28;20293;-73
2022/08/07 07:15:19;;;;;;;0.93;0.93;;;22.30;47.20;;;-142.21;43.10;112049.66;5054863;28;20200;-72
2022/08/07 07:17:56;;;;;;;1.00;0.90;;;22.50;46.90;;;-142.21;43.17;112049.66;5054464;28;20249;-73
2022/08/07 07:20:33;;;;;;;0.90;0.90;;;22.60;46.90;;;-142.21;43.05;112049.66;5054924;28;20272;-73
2022/08/07 07:23:01;;;;;;;1.27;1.07;;;22.70;46.80;;;-142.21;43.04;112049.66;5054173;28;20281;-72
2022/08/07 07:25:29;;;;;;;1.60;1.00;;;22.80;46.70;;;-142.21;42.60;112049.66;5054736;28;20237;-72
2022/08/07 07:28:02;;;;;;;1.80;1.30;;;22.90;46.50;;;-142.21;42.48;112049.66;5053800;28;20206;-72
2022/08/07 07:30:36;;;;;;;1.47;1.20;;;23.00;46.60;;;-142.21;42.32;112049.66;5054741;28;20277;-73
2022/08/07 07:33:06;;;;;;;1.40;1.30;;;23.10;46.40;;;-142.21;42.65;112049.66;5053805;28;20277;-73
2022/08/07 07:35:36;;;;;;;1.27;1.17;;;23.30;46.60;;;-142.21;42.63;112049.66;5054514;28;20297;-72
2022/08/07 07:38:06;;;;;;;1.30;1.20;;;23.30;46.50;;;-142.21;42.67;112049.66;5053861;28;20214;-72
2022/08/07 07:40:38;;;;;;;1.30;1.20;;;23.50;46.60;;;-142.21;42.48;112049.66;5054557;28;20285;-73
2022/08/07 07:43:10;;;;;;;1.50;1.20;;;23.50;46.40;;;-142.21;43.03;112049.66;5053093;28;20305;-73
2022/08/07 07:45:40;;;;;;;1.47;1.37;;;23.60;46.70;;;-142.21;42.89;112049.66;5054533;28;20223;-73
2022/08/07 07:48:10;;;;;;;1.53;1.43;;;23.70;46.70;;;-142.21;43.40;112049.66;5053531;28;20216;-71
2022/08/07 07:50:40;;;;;;;2.60;1.40;;;23.90;47.00;;;-142.21;43.35;112049.66;5054304;28;20216;-72
2022/08/07 07:53:09;;;;;;;1.40;1.20;;;23.90;46.90;;;-142.21;42.96;112049.66;5053835;28;20202;-72
2022/08/07 07:55:38;;;;;;;1.43;1.33;;;24.00;46.70;;;-142.21;42.74;112049.66;5053926;28;20296;-72
2022/08/07 07:58:07;;;;;;;1.77;1.33;;;24.10;46.70;;;-142.21;42.69;112049.66;5053220;28;20312;-72
2022/08/07 08:00:35;;;;;;;1.40;1.30;;;24.30;46.70;;;-142.21;42.63;112049.66;5054302;28;20201;-72
2022/08/07 08:03:08;;;;;;;1.60;1.50;;;24.40;46.60;;;-142.21;42.24;112049.66;5053415;28;20221;-73
2022/08/07 08:05:38;;;;;;;1.73;1.27;;;24.40;46.30;;;-142.21;42.37;112049.66;5053891;28;20656;-71
2022/08/07 08:08:08;;;;;;;1.63;1.40;;;24.50;46.50;;;-142.21;42.92;112049.66;5055239;28;20226;-73
2022/08/07 08:10:36;;;;;;;1.63;1.53;;;24.60;46.70;;;-142.21;41.85;112049.66;5062708;28;20241;-72
2022/08/07 08:13:07;;;;;;;2.63;1.50;;;24.80;46.20;;;-142.21;42.97;112049.66;5060926;28;20288;-73
2022/08/07 08:15:40;;;;;;;1.97;1.70;;;24.80;46.60;;;-142.21;41.76;112049.66;5054480;28;20194;-73
2022/08/07 08:18:11;;;;;;;2.70;1.70;;;24.90;46.00;;;-142.21;42.73;112049.66;5053292;28;20297;-73
2022/08/07 08:20:40;;;;;;;1.63;1.50;;;25.00;46.60;;;-142.21;42.78;112049.66;5053650;28;20205;-71
2022/08/07 08:28:49;;;;;;;2.40;1.40;;;25.30;46.10;;;-142.21;41.59;112049.66;5053550;28;20268;-73
2022/08/07 08:31:23;;;;;;;2.00;1.90;;;25.40;45.80;;;-142.21;42.92;112049.66;5053345;28;20201;-72
2022/08/07 08:33:55;;;;;;;3.07;1.50;;;25.50;46.30;;;-142.21;42.60;112049.66;5052518;28;20228;-73
2022/08/07 08:36:29;;;;;;;2.20;1.70;;;25.60;46.30;;;-142.21;42.14;112049.66;5053557;28;20194;-73
2022/08/07 08:39:00;;;;;;;1.50;1.40;;;25.70;46.40;;;-142.21;42.19;112049.66;5052606;28;20216;-73
2022/08/07 08:41:40;;;;;;;1.60;1.50;;;25.80;46.00;;;-142.21;40.82;112049.66;5053177;28;20190;-72
2022/08/07 08:44:21;;;;;;;1.67;1.57;;;25.90;45.40;;;-142.21;41.46;112049.66;5052155;28;20272;-72
2022/08/07 08:47:02;;;;;;;1.77;1.63;;;26.00;45.60;;;-142.21;41.41;112049.66;5052713;28;20247;-73
2022/08/07 08:49:52;;;;;;;1.23;1.20;;;26.10;45.70;;;-142.21;40.84;112049.66;5053263;28;20292;-72
2022/08/07 08:52:32;;;;;;;2.03;1.70;;;26.20;45.10;;;-142.21;40.47;112049.66;5052759;28;20206;-73
2022/08/07 08:55:07;;;;;;;2.20;1.53;;;26.30;45.10;;;-142.21;40.58;112049.66;5052213;28;20559;-71
2022/08/07 08:57:42;;;;;;;1.70;1.60;;;26.50;45.40;;;-142.21;40.28;112049.66;5052948;28;20221;-72
2022/08/07 09:00:13;;;;;;;1.90;1.37;;;26.50;45.10;;;-142.21;39.52;112049.66;5052576;28;20194;-73
2022/08/07 09:02:56;;;;;;;1.60;1.50;;;26.60;44.30;;;-142.21;39.21;112049.66;5052522;28;20285;-73
2022/08/07 09:05:40;;;;;;;1.80;1.70;;;26.70;44.20;;;-142.21;38.60;112049.66;5052640;28;20693;-72
2022/08/07 09:08:29;;;;;;;2.20;1.90;;;26.70;43.80;;;-142.21;39.28;112049.66;5051832;28;20280;-73
2022/08/07 09:11:13;;;;;;;2.13;1.30;;;26.80;43.90;;;-142.21;38.92;112049.66;5051787;28;20190;-72
2022/08/07 09:14:04;;;;;;;1.43;1.33;;;27.00;43.80;;;-142.21;38.26;112049.66;5052809;28;20734;-71
2022/08/07 09:16:52;;;;;;;1.60;1.50;;;27.00;43.20;;;-142.21;39.23;112049.66;5052744;28;20194;-72
2022/08/07 09:19:41;;;;;;;3.33;1.60;;;27.20;43.80;;;-142.21;39.11;112049.66;5052688;28;20210;-73
2022/08/07 09:22:39;;;;;;;1.77;1.67;;;27.30;43.90;;;-142.21;37.94;112049.66;5051572;28;20643;-72
2022/08/07 09:25:11;;;;;;;2.70;1.50;;;27.40;43.20;;;-142.21;38.82;112049.66;5051851;28;20190;-73
2022/08/07 09:27:51;;;;;;;1.70;1.60;;;27.50;44.00;;;-142.21;37.65;112049.66;5051902;28;20302;-74
2022/08/07 09:30:20;;;;;;;2.60;1.90;;;27.70;42.80;;;-142.21;37.29;112049.66;5052582;28;20198;-73
2022/08/07 09:33:12;;;;;;;3.10;1.70;;;27.70;42.20;;;-142.21;37.18;112049.66;5052265;28;20292;-73
2022/08/07 09:35:52;;;;;;;1.77;1.60;;;27.80;42.10;;;-142.21;37.35;112049.66;5052248;28;20197;-72
2022/08/07 09:38:31;;;;;;;1.97;1.50;;;27.90;41.90;;;-142.21;35.98;112049.66;5052057;28;20213;-72
2022/08/07 09:41:09;;;;;;;2.40;1.50;;;28.00;41.40;;;-142.21;36.14;112049.66;5031884;28;20188;-73
2022/08/07 09:43:56;;;;;;;2.90;1.27;;;28.10;41.50;;;-142.21;34.55;112049.66;5031934;28;20330;-73
2022/08/07 09:46:42;;;;;;;1.50;1.30;;;28.20;39.80;;;-142.21;33.82;112049.66;5032237;28;20560;-72
2022/08/07 09:49:45;;;;;;;1.33;1.23;;;28.20;39.40;;;-142.21;34.66;112049.66;5031911;28;20193;-73
2022/08/07 09:52:23;;;;;;;1.60;1.50;;;28.30;39.20;;;-142.21;33.60;112049.66;5031445;28;20208;-73
2022/08/07 09:55:00;;;;;;;1.80;1.20;;;28.40;38.40;;;-142.21;32.66;112049.66;5031609;28;20220;-72
2022/08/07 09:58:09;;;;;;;2.30;1.30;;;28.50;37.70;;;-142.21;32.18;112049.66;5031865;28;20656;-73
2022/08/07 10:01:04;;;;;;;1.30;1.20;;;28.60;36.70;;;-142.21;33.10;112049.66;5031823;28;20267;-73
2022/08/07 10:04:06;;;;;;;1.50;1.30;;;28.70;37.80;;;-142.21;31.86;112049.66;5031868;28;20649;-71
2022/08/07 10:07:05;;;;;;;1.20;1.10;;;28.90;37.40;;;-142.21;32.49;112049.66;5039563;28;20230;-71
2022/08/07 10:10:10;;;;;;;1.83;1.10;;;29.00;37.10;;;-142.21;32.40;112049.66;5051968;28;20206;-72
2022/08/07 10:12:56;;;;;;;2.17;1.10;;;29.00;36.70;;;-142.21;32.16;112049.66;5051864;28;20216;-73
2022/08/07 10:15:49;;;;;;;2.00;0.93;;;29.20;36.70;;;-142.21;30.47;112049.66;5051863;28;20248;-73
2022/08/07 10:18:56;;;;;;;1.10;0.90;;;29.30;35.00;;;-142.21;29.82;112049.66;5050720;28;20233;-73
2022/08/07 10:21:40;;;;;;;1.63;1.20;;;29.30;33.40;;;-142.21;29.98;112049.66;5051711;28;20283;-71
2022/08/07 10:25:03;;;;;;;1.93;1.13;;;29.40;34.30;;;-142.21;29.35;112049.66;5051484;28;20197;-71
2022/08/07 10:28:03;;;;;;;1.67;1.23;;;29.50;33.40;;;-142.21;30.19;112049.66;5027719;28;20219;-72
2022/08/07 10:30:49;;;;;;;2.20;1.40;;;29.50;33.90;;;-142.21;30.17;112049.66;5051731;28;20193;-72